createdAt,value
2023-04-01T00:00:52.010Z,99.5
2023-04-01T00:05:58.348Z,99.5
2023-04-01T00:11:03.806Z,99.5
2023-04-01T00:16:10.104Z,99.5
2023-04-01T00:21:16.416Z,99.5
2023-04-01T00:26:22.581Z,99.5
2023-04-01T00:31:29.141Z,99.5
2023-04-01T00:36:35.414Z,99.5
2023-04-01T00:41:40.840Z,99.5
2023-04-01T00:46:47.161Z,99.5
2023-04-01T00:51:53.477Z,99.5
2023-04-01T00:56:59.665Z,99.5
2023-04-01T01:02:06.127Z,99.5
2023-04-01T01:07:12.489Z,99.5
2023-04-01T01:12:18.775Z,99.5
2023-04-01T01:17:25.106Z,99.5
2023-04-01T01:22:31.423Z,99.5
2023-04-01T01:27:37.706Z,99.5
2023-04-01T01:32:43.912Z,99.5
2023-04-01T01:37:50.366Z,99.5
2023-04-01T01:42:56.723Z,99.5
2023-04-01T01:48:02.015Z,99.5
2023-04-01T01:53:08.469Z,99.5
2023-04-01T01:58:14.855Z,99.5
2023-04-01T02:03:21.162Z,99.5
2023-04-01T02:08:27.451Z,99.5
2023-04-01T02:13:33.609Z,99.5
2023-04-01T02:18:40.095Z,99.5
2023-04-01T02:23:46.273Z,99.5
2023-04-01T02:28:52.715Z,99.5
2023-04-01T02:33:58.966Z,99.5
2023-04-01T02:39:05.334Z,99.5
2023-04-01T02:44:11.561Z,99.5
2023-04-01T02:49:17.891Z,99.5
2023-04-01T02:54:23.464Z,99.5
2023-04-01T02:59:29.820Z,99.5
2023-04-01T03:04:36.166Z,99.5
2023-04-01T03:09:42.299Z,99.5
2023-04-01T03:14:48.858Z,99.5
2023-04-01T03:19:54.954Z,99.5
2023-04-01T03:25:01.373Z,99.5
2023-04-01T03:30:07.731Z,99.5
2023-04-01T03:35:14.107Z,99.5
2023-04-01T03:40:20.417Z,99.5
2023-04-01T03:45:26.556Z,99.5
2023-04-01T03:50:33.057Z,99.5
2023-04-01T03:55:39.348Z,99.5
2023-04-01T04:00:44.967Z,99.5
2023-04-01T04:05:51.128Z,99.5
2023-04-01T04:10:57.433Z,99.5
2023-04-01T04:16:03.767Z,99.5
2023-04-01T04:21:10.097Z,99.5
2023-04-01T04:26:16.479Z,99.5
2023-04-01T04:31:22.611Z,99.5
2023-04-01T04:36:29.134Z,99.5
2023-04-01T04:41:35.263Z,99.5
2023-04-01T04:46:41.686Z,99.5
2023-04-01T04:51:47.951Z,99.5
2023-04-01T04:56:54.320Z,99.5
2023-04-01T05:02:00.541Z,99.5
2023-04-01T05:07:06.014Z,99.5
2023-04-01T05:12:12.387Z,99.5
2023-04-01T05:17:18.741Z,99.5
2023-04-01T05:22:25.069Z,99.5
2023-04-01T05:27:31.439Z,99.5
2023-04-01T05:32:37.734Z,99.5
2023-04-01T05:37:44.091Z,99.5
2023-04-01T05:42:50.253Z,99.5
2023-04-01T05:47:56.620Z,99.5
2023-04-01T05:53:02.968Z,99.5
2023-04-01T05:58:09.329Z,99.5
2023-04-01T06:03:15.712Z,99.5
2023-04-01T06:13:28.289Z,99.5
2023-04-01T06:18:33.671Z,99.5
2023-04-01T06:23:39.978Z,99.5
2023-04-01T06:28:46.432Z,99.5
2023-04-01T06:33:52.724Z,99.5
2023-04-01T06:38:58.943Z,99.5
2023-04-01T06:44:05.431Z,99.5
2023-04-01T06:49:11.745Z,99.5
2023-04-01T06:54:18.095Z,99.5
2023-04-01T06:59:24.305Z,99.5
2023-04-01T07:04:30.667Z,99.5
2023-04-01T07:09:37.052Z,99.5
2023-04-01T07:14:43.369Z,99.5
2023-04-01T07:19:49.659Z,99.5
2023-04-01T07:24:55.160Z,99.5
2023-04-01T07:30:01.437Z,99.5
2023-04-01T07:35:07.806Z,99.5
2023-04-01T07:40:14.115Z,99.5
2023-04-01T07:45:20.422Z,99.5
2023-04-01T07:50:26.621Z,99
2023-04-01T07:55:32.955Z,98
2023-04-01T08:00:39.397Z,99.5
2023-04-01T08:05:45.751Z,97
2023-04-01T08:10:52.070Z,95
2023-04-01T08:46:36.309Z,89
2023-04-01T08:51:41.758Z,90.5
2023-04-01T08:56:47.169Z,93
2023-04-01T09:01:53.535Z,93
2023-04-01T09:06:59.867Z,93
2023-04-01T09:12:06.026Z,85
2023-04-01T09:17:12.427Z,90
2023-04-01T09:22:18.797Z,88.5
2023-04-01T09:27:25.171Z,87
2023-04-01T09:32:31.483Z,90.5
2023-04-01T09:37:37.678Z,89.5
2023-04-01T09:42:44.087Z,88
2023-04-01T09:47:49.499Z,89
2023-04-01T09:52:54.883Z,89.5
2023-04-01T09:58:01.341Z,90
2023-04-01T10:03:07.514Z,85.5
2023-04-01T10:08:14.072Z,82
2023-04-01T10:13:20.320Z,83
2023-04-01T10:18:26.617Z,83.5
2023-04-01T10:23:32.950Z,81.5
2023-04-01T10:28:39.288Z,81
2023-04-01T10:33:45.469Z,81
2023-04-01T10:38:51.817Z,79
2023-04-01T10:43:58.261Z,78
2023-04-01T10:49:04.598Z,82
2023-04-01T10:54:10.878Z,78
2023-04-01T10:59:16.361Z,73.5
2023-04-01T11:04:22.671Z,74
2023-04-01T11:09:28.946Z,74
2023-04-01T11:14:35.200Z,74
2023-04-01T11:19:41.482Z,72.5
2023-04-01T11:24:47.846Z,79.5
2023-04-01T11:29:54.154Z,78
2023-04-01T11:35:00.496Z,78
2023-04-01T11:40:06.777Z,82.5
2023-04-01T11:45:13.116Z,85
2023-04-01T11:50:19.412Z,82
2023-04-01T11:55:25.768Z,75.5
2023-04-01T12:00:32.045Z,78.5
2023-04-01T12:05:37.495Z,75.5
2023-04-01T12:10:43.826Z,75
2023-04-01T12:15:50.159Z,80
2023-04-01T12:20:56.462Z,80
2023-04-01T12:26:02.792Z,78
2023-04-01T12:31:09.128Z,79.5
2023-04-01T12:36:15.432Z,79.5
2023-04-01T12:41:21.884Z,82.5
2023-04-01T12:46:28.088Z,86.5
2023-04-01T12:51:33.548Z,88.5
2023-04-01T12:56:38.984Z,90.5
2023-04-01T13:01:45.323Z,89
2023-04-01T13:06:50.917Z,89.5
2023-04-01T13:11:56.225Z,89.5
2023-04-01T13:17:02.548Z,91
2023-04-01T13:22:08.900Z,93
2023-04-01T13:27:15.191Z,95.5
2023-04-01T13:32:21.512Z,98
2023-04-01T13:37:27.821Z,99.5
2023-04-01T13:42:34.184Z,99.5
2023-04-01T13:47:40.499Z,99.5
2023-04-01T13:52:46.836Z,99.5
2023-04-01T13:57:53.124Z,99.5
2023-04-01T14:02:59.443Z,99.5
2023-04-01T14:08:05.763Z,99.5
2023-04-01T14:13:12.098Z,99.5
2023-04-01T14:18:17.608Z,99.5
2023-04-01T14:23:23.962Z,99.5
2023-04-01T14:28:30.213Z,99.5
2023-04-01T14:33:36.516Z,99.5
2023-04-01T14:38:42.847Z,99.5
2023-04-01T14:43:49.161Z,99.5
2023-04-01T14:48:55.489Z,99.5
2023-04-01T14:54:01.802Z,99.5
2023-04-01T14:59:07.269Z,99.5
2023-04-01T15:04:12.774Z,99.5
2023-04-01T15:09:19.027Z,99.5
2023-04-01T15:14:25.375Z,99.5
2023-04-01T15:19:31.707Z,99.5
2023-04-01T15:24:38.001Z,99.5
2023-04-01T15:29:44.411Z,99.5
2023-04-01T15:34:50.655Z,99.5
2023-04-01T15:39:56.985Z,99.5
2023-04-01T15:45:03.288Z,99.5
2023-04-01T15:50:09.748Z,99.5
2023-04-01T15:55:15.943Z,99.5
2023-04-01T16:00:22.443Z,99.5
2023-04-01T16:05:28.591Z,99.5
2023-04-01T16:10:34.209Z,99.5
2023-04-01T16:15:40.486Z,99.5
2023-04-01T16:20:46.831Z,99.5
2023-04-01T16:25:53.181Z,99.5
2023-04-01T16:30:59.517Z,99.5
2023-04-01T16:36:04.933Z,99.5
2023-04-01T16:41:10.218Z,99.5
2023-04-01T17:16:54.706Z,99.5
2023-04-01T17:22:00.996Z,99.5
2023-04-01T17:27:07.213Z,99.5
2023-04-01T17:32:13.666Z,99.5
2023-04-01T17:37:19.981Z,99.5
2023-04-01T17:42:26.308Z,99.5
2023-04-01T17:47:31.811Z,99.5
2023-04-01T17:52:37.889Z,99.5
2023-04-01T17:57:44.369Z,99.5
2023-04-01T18:02:49.837Z,99.5
2023-04-01T18:07:55.267Z,99.5
2023-04-01T18:13:01.652Z,99.5
2023-04-01T18:18:07.983Z,99.5
2023-04-01T18:23:14.341Z,99.5
2023-04-01T18:28:20.610Z,99.5
2023-04-01T18:33:26.951Z,99.5
2023-04-01T18:38:33.250Z,99.5
2023-04-01T18:43:39.604Z,99.5
2023-04-01T18:48:45.849Z,99.5
2023-04-01T18:53:52.232Z,99.5
2023-04-01T18:58:57.749Z,99.5
2023-04-01T19:04:04.008Z,99.5
2023-04-01T19:09:09.313Z,99.5
2023-04-01T19:14:15.637Z,99.5
2023-04-01T19:19:22.049Z,99.5
2023-04-01T19:24:28.431Z,99.5
2023-04-01T19:29:34.820Z,99.5
2023-04-01T19:34:41.113Z,99.5
2023-04-01T19:39:47.472Z,99.5
2023-04-01T19:44:53.763Z,99.5
2023-04-01T19:50:00.105Z,99.5
2023-04-01T19:55:05.543Z,99.5
2023-04-01T20:00:11.013Z,99.5
2023-04-01T20:05:17.264Z,99.5
2023-04-01T20:10:23.619Z,99.5
2023-04-01T20:15:29.820Z,99.5
2023-04-01T20:20:36.255Z,99.5
2023-04-01T20:25:42.453Z,99.5
2023-04-01T20:30:48.811Z,99.5
2023-04-01T20:35:55.271Z,99.5
2023-04-01T20:41:01.575Z,99.5
2023-04-01T20:46:07.922Z,99.5
2023-04-01T20:51:14.099Z,99.5
2023-04-01T20:56:20.465Z,99.5
2023-04-01T21:01:26.929Z,99.5
2023-04-01T21:06:32.387Z,99.5
2023-04-01T21:11:38.516Z,99.5
2023-04-01T21:16:45.038Z,99.5
2023-04-01T21:21:51.347Z,99.5
2023-04-01T21:26:57.660Z,99.5
2023-04-01T21:32:03.981Z,99.5
2023-04-01T21:37:10.351Z,99.5
2023-04-01T21:42:15.503Z,99.5
2023-04-01T21:47:20.736Z,99.5
2023-04-01T21:52:27.109Z,99.5
2023-04-01T21:57:33.301Z,99.5
2023-04-01T22:02:39.355Z,99.5
2023-04-01T22:07:46.066Z,99.5
2023-04-01T22:12:51.841Z,99.5
2023-04-01T22:17:57.875Z,99.5
2023-04-01T22:23:04.167Z,99.5
2023-04-01T22:28:10.424Z,99.5
2023-04-01T22:33:16.587Z,99.5
2023-04-01T22:38:22.773Z,99.5
2023-04-01T22:43:28.932Z,99.5
2023-04-01T22:48:35.244Z,99.5
2023-04-01T22:53:41.359Z,99.5
2023-04-01T22:58:46.539Z,99.5
2023-04-01T23:03:52.773Z,99.5
2023-04-01T23:08:59.027Z,99.5
2023-04-01T23:14:05.173Z,99.5
2023-04-01T23:19:11.423Z,99.5
2023-04-01T23:24:17.552Z,99.5
2023-04-01T23:29:23.693Z,99.5
2023-04-01T23:34:30.010Z,99.5
2023-04-01T23:39:36.098Z,99.5
2023-04-01T23:44:42.457Z,99.5
2023-04-01T23:49:48.539Z,99.5
2023-04-01T23:54:54.739Z,99.5
